createdAt,value
2018-01-21T00:01:32.438Z,12.82
2018-01-21T00:04:01.075Z,14.43
2018-01-21T00:06:28.826Z,15.70
2018-01-21T00:08:56.969Z,14.65
2018-01-21T00:11:26.637Z,12.68
2018-01-21T00:13:55.205Z,12.10
2018-01-21T00:16:26.161Z,15.50
2018-01-21T00:18:56.224Z,15.23
2018-01-21T00:21:25.760Z,15.27
2018-01-21T00:23:54.797Z,14.60
2018-01-21T00:26:26.371Z,12.15
2018-01-21T00:28:55.474Z,16.23
2018-01-21T00:31:23.917Z,14.87
2018-01-21T00:33:55.866Z,15.15
2018-01-21T00:36:26.168Z,13.40
2018-01-21T00:38:56.914Z,13.52
2018-01-21T00:41:27.229Z,16.52
2018-01-21T00:43:58.971Z,12.73
2018-01-21T00:46:30.654Z,12.85
2018-01-21T00:49:03.266Z,15.60
2018-01-21T00:51:31.283Z,13.45
2018-01-21T00:53:58.906Z,13.00
2018-01-21T00:56:26.546Z,12.02
2018-01-21T00:58:54.276Z,13.30
2018-01-21T01:01:22.937Z,10.60
2018-01-21T01:03:50.967Z,16.02
2018-01-21T01:06:20.194Z,12.45
2018-01-21T01:09:03.020Z,14.00
2018-01-21T01:11:33.388Z,12.43
2018-01-21T01:14:02.215Z,13.00
2018-01-21T01:16:31.456Z,13.90
2018-01-21T01:19:01.580Z,11.70
2018-01-21T01:21:31.612Z,14.13
2018-01-21T01:24:03.390Z,14.48
2018-01-21T01:26:33.164Z,16.58
2018-01-21T01:29:02.338Z,13.23
2018-01-21T01:31:31.353Z,13.65
2018-01-21T01:34:04.902Z,14.02
2018-01-21T01:36:36.415Z,15.45
2018-01-21T01:39:05.526Z,15.48
2018-01-21T01:41:34.871Z,19.12
2018-01-21T01:44:03.482Z,20.90
2018-01-21T01:46:33.556Z,18.50
2018-01-21T01:49:03.550Z,18.27
2018-01-21T01:51:35.699Z,16.75
2018-01-21T01:54:04.404Z,18.35
2018-01-21T01:56:45.089Z,20.65
2018-01-21T01:59:13.354Z,19.12
2018-01-21T02:01:43.564Z,16.98
2018-01-21T02:04:13.451Z,24.42
2018-01-21T02:06:45.651Z,23.30
2018-01-21T02:09:19.035Z,22.05
2018-01-21T02:11:47.466Z,25.95
2018-01-21T02:14:18.840Z,24.50
2018-01-21T02:19:24.154Z,24.00
2018-01-21T02:21:53.248Z,23.45
2018-01-21T02:24:22.750Z,22.95
2018-01-21T02:26:55.653Z,25.75
2018-01-21T02:29:26.359Z,25.40
2018-01-21T02:31:56.242Z,25.10
2018-01-21T02:34:25.726Z,28.02
2018-01-21T02:36:55.051Z,24.85
2018-01-21T02:39:25.600Z,21.27
2018-01-21T02:41:56.852Z,23.42
2018-01-21T02:44:25.624Z,23.75
2018-01-21T02:46:55.816Z,20.70
2018-01-21T02:49:24.970Z,21.58
2018-01-21T02:51:53.790Z,23.23
2018-01-21T02:54:26.640Z,20.45
2018-01-21T02:56:56.356Z,23.25
2018-01-21T02:59:27.511Z,20.08
2018-01-21T03:01:56.924Z,23.90
2018-01-21T03:04:27.212Z,19.50
2018-01-21T03:06:56.350Z,31.20
2018-01-21T03:09:25.749Z,24.58
2018-01-21T03:11:56.448Z,26.45
2018-01-21T03:14:25.933Z,28.92
2018-01-21T03:16:54.772Z,23.62
2018-01-21T03:19:24.708Z,28.38
2018-01-21T03:21:53.181Z,27.02
2018-01-21T03:24:23.735Z,29.42
2018-01-21T03:26:53.133Z,37.58
2018-01-21T03:29:20.886Z,34.78
2018-01-21T03:31:48.680Z,29.50
2018-01-21T03:34:16.337Z,33.55
2018-01-21T03:36:44.832Z,25.05
2018-01-21T03:39:12.605Z,23.75
2018-01-21T03:41:40.293Z,30.92
2018-01-21T03:44:07.998Z,32.50
2018-01-21T03:46:35.792Z,35.25
2018-01-21T03:49:03.409Z,42.03
2018-01-21T03:51:31.046Z,51.47
2018-01-21T03:53:58.759Z,37.80
2018-01-21T03:56:27.167Z,37.15
2018-01-21T03:58:54.785Z,34.50
2018-01-21T04:01:22.586Z,35.08
2018-01-21T04:03:50.195Z,32.00
2018-01-21T04:06:18.070Z,34.00
2018-01-21T04:08:45.824Z,33.40
2018-01-21T04:11:13.397Z,39.38
2018-01-21T04:13:41.933Z,41.55
2018-01-21T04:16:09.672Z,39.70
2018-01-21T04:18:37.281Z,34.72
2018-01-21T04:21:05.053Z,38.75
2018-01-21T04:23:33.125Z,48.40
2018-01-21T04:26:00.821Z,37.17
2018-01-21T04:28:28.420Z,44.53
2018-01-21T04:30:56.138Z,47.95
2018-01-21T04:33:24.128Z,49.10
2018-01-21T04:35:52.140Z,46.88
2018-01-21T04:38:23.794Z,35.13
2018-01-21T04:40:51.636Z,36.88
2018-01-21T04:43:19.414Z,37.38
2018-01-21T04:45:47.648Z,48.15
2018-01-21T04:48:15.287Z,34.08
2018-01-21T04:50:44.100Z,42.80
2018-01-21T04:53:16.743Z,38.28
2018-01-21T04:55:50.508Z,43.50
2018-01-21T04:58:18.124Z,39.90
2018-01-21T05:00:48.869Z,44.33
2018-01-21T05:03:21.893Z,36.60
2018-01-21T05:05:49.797Z,43.38
2018-01-21T05:08:17.456Z,47.88
2018-01-21T05:10:45.058Z,37.08
2018-01-21T05:13:12.787Z,37.67
2018-01-21T05:15:40.713Z,44.25
2018-01-21T05:18:08.393Z,39.28
2018-01-21T05:20:36.172Z,38.58
2018-01-21T05:23:03.808Z,41.45
2018-01-21T05:25:31.405Z,40.12
2018-01-21T05:27:59.156Z,39.72
2018-01-21T05:30:26.920Z,40.90
2018-01-21T05:32:56.949Z,40.88
2018-01-21T05:35:24.606Z,35.28
2018-01-21T05:37:52.400Z,39.80
2018-01-21T05:40:20.054Z,37.65
2018-01-21T05:42:47.758Z,39.20
2018-01-21T05:45:15.476Z,38.13
2018-01-21T05:47:43.074Z,31.08
2018-01-21T05:50:10.706Z,35.90
2018-01-21T05:52:38.414Z,34.03
2018-01-21T05:55:06.652Z,34.28
2018-01-21T05:57:34.590Z,42.03
2018-01-21T06:00:04.382Z,41.95
2018-01-21T06:02:32.493Z,49.78
2018-01-21T06:05:00.106Z,54.72
2018-01-21T06:07:27.825Z,51.08
2018-01-21T06:09:55.456Z,46.55
2018-01-21T06:12:23.052Z,54.83
2018-01-21T06:14:50.821Z,64.25
2018-01-21T06:17:28.533Z,54.35
2018-01-21T06:19:56.329Z,56.33
2018-01-21T06:22:24.233Z,48.50
2018-01-21T06:24:52.049Z,37.40
2018-01-21T06:27:19.852Z,37.33
2018-01-21T06:29:47.586Z,35.17
2018-01-21T06:32:15.387Z,38.17
2018-01-21T06:34:43.218Z,29.92
2018-01-21T06:37:10.911Z,30.58
2018-01-21T06:39:38.736Z,37.97
2018-01-21T06:42:06.388Z,39.22
2018-01-21T06:44:33.992Z,38.45
2018-01-21T06:47:02.247Z,32.92
2018-01-21T06:49:30.740Z,34.95
2018-01-21T06:51:58.421Z,29.05
2018-01-21T06:54:26.172Z,25.65
2018-01-21T06:56:53.820Z,29.20
2018-01-21T06:59:21.505Z,28.17
2018-01-21T07:01:49.383Z,32.28
2018-01-21T07:04:16.997Z,34.72
2018-01-21T07:06:44.635Z,31.02
2018-01-21T07:09:12.701Z,37.63
2018-01-21T07:11:40.672Z,37.50
2018-01-21T07:14:08.442Z,29.90
2018-01-21T07:16:36.257Z,36.30
2018-01-21T07:19:03.940Z,34.03
2018-01-21T07:21:31.713Z,34.65
2018-01-21T07:23:59.536Z,37.50
2018-01-21T07:26:27.449Z,41.22
2018-01-21T07:28:55.628Z,40.03
2018-01-21T07:31:24.195Z,37.70
2018-01-21T07:33:51.815Z,34.13
2018-01-21T07:36:19.568Z,38.28
2018-01-21T07:38:47.286Z,37.80
2018-01-21T07:41:15.581Z,31.00
2018-01-21T07:43:43.337Z,25.00
2018-01-21T07:46:11.129Z,27.85
2018-01-21T07:48:40.404Z,21.42
2018-01-21T07:51:08.048Z,21.98
2018-01-21T07:53:35.767Z,19.00
2018-01-21T07:56:03.571Z,23.10
2018-01-21T07:58:32.370Z,22.25
2018-01-21T08:01:00.292Z,18.20
2018-01-21T08:03:28.860Z,21.80
2018-01-21T08:05:56.704Z,28.77
2018-01-21T08:08:24.580Z,29.92
2018-01-21T08:10:52.417Z,50.72
2018-01-21T08:14:08.885Z,51.72
2018-01-21T08:16:36.661Z,39.92
2018-01-21T08:19:04.376Z,40.22
2018-01-21T08:21:32.008Z,33.17
2018-01-21T08:23:59.827Z,32.65
2018-01-21T08:26:28.359Z,34.53
2018-01-21T08:28:56.318Z,38.40
2018-01-21T08:31:24.104Z,40.83
2018-01-21T08:33:58.237Z,46.08
2018-01-21T08:36:31.707Z,37.58
2018-01-21T13:11:37.412Z,23.33
2018-01-21T13:16:45.812Z,30.90
2018-01-21T13:19:16.836Z,37.70
2018-01-21T13:22:01.953Z,30.37
2018-01-21T13:24:45.911Z,30.90
2018-01-21T13:27:21.040Z,29.25
2018-01-21T13:29:56.928Z,38.20
2018-01-21T13:35:14.858Z,29.55
2018-01-21T13:37:42.619Z,27.58
2018-01-21T13:44:03.571Z,25.75
2018-01-21T13:46:31.324Z,26.48
2018-01-21T13:48:58.892Z,23.90
2018-01-21T13:51:26.755Z,25.12
2018-01-21T13:53:54.561Z,27.30
2018-01-21T13:56:22.355Z,30.27
2018-01-21T13:58:50.500Z,32.92
2018-01-21T14:01:23.422Z,43.50
2018-01-21T14:03:54.289Z,39.08
2018-01-21T14:06:22.970Z,36.72
2018-01-21T14:08:53.484Z,39.65
2018-01-21T14:11:29.163Z,36.33
2018-01-21T14:14:06.841Z,36.70
2018-01-21T14:16:40.797Z,39.88
2018-01-21T14:19:11.014Z,35.08
2018-01-21T14:21:41.507Z,29.52
2018-01-21T14:24:13.318Z,34.55
2018-01-21T14:26:44.320Z,35.97
2018-01-21T14:29:15.024Z,35.15
2018-01-21T14:31:46.719Z,29.25
2018-01-21T14:36:52.940Z,40.67
2018-01-21T14:39:24.914Z,43.38
2018-01-21T14:41:56.138Z,38.50
2018-01-21T14:44:30.752Z,35.25
2018-01-21T14:47:06.435Z,34.30
2018-01-21T14:49:37.181Z,33.13
2018-01-21T14:52:08.946Z,39.78
2018-01-21T14:54:39.836Z,37.15
2018-01-21T14:57:11.225Z,31.90
2018-01-21T14:59:42.703Z,36.42
2018-01-21T15:02:14.553Z,36.50
2018-01-21T15:04:45.550Z,39.05
2018-01-21T15:07:15.272Z,28.62
2018-01-21T15:09:48.689Z,23.25
2018-01-21T15:12:20.033Z,32.45
2018-01-21T15:17:26.818Z,40.67
2018-01-21T15:19:57.390Z,32.70
2018-01-21T15:22:36.047Z,31.67
2018-01-21T15:25:04.923Z,35.13
2018-01-21T15:27:35.591Z,30.45
2018-01-21T15:30:12.787Z,37.83
2018-01-21T15:32:43.928Z,26.77
2018-01-21T15:35:12.499Z,22.48
2018-01-21T15:37:40.953Z,25.77
2018-01-21T15:40:09.176Z,26.55
2018-01-21T15:42:37.741Z,33.28
2018-01-21T15:45:05.718Z,32.67
2018-01-21T15:47:33.920Z,32.97
2018-01-21T15:50:15.310Z,36.60
2018-01-21T15:52:50.224Z,23.55
2018-01-21T15:55:19.517Z,29.12
2018-01-21T15:57:52.721Z,30.50
2018-01-21T16:00:21.421Z,33.53
2018-01-21T16:02:50.289Z,31.77
2018-01-21T16:05:18.082Z,28.62
2018-01-21T16:07:48.913Z,24.75
2018-01-21T16:10:16.763Z,28.90
2018-01-21T16:12:45.102Z,24.35
2018-01-21T16:15:13.692Z,26.35
2018-01-21T16:17:41.286Z,36.17
2018-01-21T16:20:08.917Z,26.23
2018-01-21T16:22:37.180Z,34.08
2018-01-21T16:25:04.828Z,37.33
2018-01-21T16:27:33.448Z,38.17
2018-01-21T16:30:02.349Z,34.30
2018-01-21T16:32:31.313Z,27.42
2018-01-21T16:35:00.316Z,23.25
2018-01-21T16:37:42.411Z,32.28
2018-01-21T16:40:10.680Z,33.25
2018-01-21T16:42:39.431Z,31.70
2018-01-21T16:45:07.450Z,33.50
2018-01-21T16:47:39.082Z,35.63
2018-01-21T16:50:08.739Z,33.45
2018-01-21T16:52:38.346Z,29.17
2018-01-21T16:55:06.404Z,43.47
2018-01-21T16:57:35.158Z,50.53
2018-01-21T17:00:10.500Z,43.53
2018-01-21T17:02:38.920Z,33.95
2018-01-21T17:05:07.825Z,39.00
2018-01-21T17:07:38.062Z,43.05
2018-01-21T17:10:12.125Z,37.65
2018-01-21T17:12:40.214Z,45.45
2018-01-21T17:15:08.393Z,39.85
2018-01-21T17:17:37.147Z,32.45
2018-01-21T17:20:05.718Z,28.92
2018-01-21T17:22:33.648Z,28.58
2018-01-21T17:25:02.253Z,36.63
2018-01-21T17:27:30.079Z,34.05
2018-01-21T17:29:58.293Z,26.73
2018-01-21T17:32:27.149Z,29.63
2018-01-21T17:34:54.995Z,30.75
2018-01-21T17:37:22.691Z,37.47
2018-01-21T17:39:51.141Z,35.35
2018-01-21T17:42:38.286Z,33.45
2018-01-21T17:45:25.423Z,34.25
2018-01-21T17:50:54.516Z,32.88
2018-01-21T17:56:21.923Z,40.08
2018-01-21T17:58:51.568Z,39.50
2018-01-21T18:01:20.478Z,41.90
2018-01-21T18:03:49.251Z,35.83
2018-01-21T18:06:19.420Z,31.02
2018-01-21T18:08:47.717Z,37.03
2018-01-21T18:11:15.491Z,40.67
2018-01-21T18:13:44.928Z,34.78
2018-01-21T18:16:13.728Z,35.63
2018-01-21T18:18:41.545Z,40.83
2018-01-21T18:21:17.607Z,41.60
2018-01-21T18:23:48.468Z,45.00
2018-01-21T20:08:06.342Z,28.48
2018-01-21T20:10:35.736Z,37.45
2018-01-21T20:13:04.811Z,36.47
2018-01-21T20:18:43.097Z,25.45
2018-01-21T20:21:11.904Z,25.52
2018-01-21T20:23:40.788Z,24.87
2018-01-21T20:26:08.491Z,25.00
2018-01-21T20:28:36.445Z,22.55
2018-01-21T20:31:04.174Z,27.90
2018-01-21T20:33:31.734Z,25.20
2018-01-21T20:35:59.398Z,30.08
2018-01-21T20:38:27.275Z,26.52
2018-01-21T20:40:55.913Z,20.77
2018-01-21T20:43:23.534Z,24.00
2018-01-21T20:45:51.337Z,28.08
2018-01-21T20:48:19.002Z,22.58
2018-01-21T20:50:46.702Z,28.50
2018-01-21T20:53:21.148Z,23.77
2018-01-21T20:55:50.511Z,30.83
2018-01-21T20:58:18.290Z,26.70
2018-01-21T21:03:45.253Z,18.30
